sensor_id;sensor_type;location;lat;lon;timestamp;pressure;altitude;pressure_sealevel;temperature;humidity
7748;BME280;3918;42.564;23.164;2023-04-23T04:03:18;-11650.84;;;-142.29;100.00
7748;BME280;3918;42.564;23.164;2023-04-23T04:05:45;-11650.84;;;-142.29;100.00
7748;BME280;3918;42.564;23.164;2023-04-23T04:08:12;-11650.84;;;-142.29;100.00
7748;BME280;3918;42.564;23.164;2023-04-23T04:10:39;-11650.84;;;-142.29;100.00
7748;BME280;3918;42.564;23.164;2023-04-23T04:13:06;-11650.84;;;-142.29;100.00
7748;BME280;3918;42.564;23.164;2023-04-23T04:15:33;-11650.84;;;-142.29;100.00
7748;BME280;3918;42.564;23.164;2023-04-23T04:17:59;-11650.84;;;-142.29;100.00
7748;BME280;3918;42.564;23.164;2023-04-23T04:20:28;-11650.84;;;-142.29;100.00
7748;BME280;3918;42.564;23.164;2023-04-23T04:22:54;-11650.84;;;-142.29;100.00
7748;BME280;3918;42.564;23.164;2023-04-23T04:25:21;-11650.84;;;-142.29;100.00
7748;BME280;3918;42.564;23.164;2023-04-23T04:27:48;-11650.84;;;-142.29;100.00
7748;BME280;3918;42.564;23.164;2023-04-23T04:30:16;-11650.84;;;-142.29;100.00
7748;BME280;3918;42.564;23.164;2023-04-23T04:32:43;-11650.84;;;-142.29;100.00
7748;BME280;3918;42.564;23.164;2023-04-23T04:35:10;-11650.84;;;-142.29;100.00
7748;BME280;3918;42.564;23.164;2023-04-23T04:37:40;-11650.84;;;-142.29;100.00
7748;BME280;3918;42.564;23.164;2023-04-23T04:40:08;-11650.84;;;-142.29;100.00
7748;BME280;3918;42.564;23.164;2023-04-23T04:42:37;-11650.84;;;-142.29;88.49
7748;BME280;3918;42.564;23.164;2023-04-23T04:45:04;-11650.84;;;-142.29;86.26
7748;BME280;3918;42.564;23.164;2023-04-23T04:47:33;-11650.84;;;-142.29;56.68
7748;BME280;3918;42.564;23.164;2023-04-23T04:50:00;-11650.84;;;-142.29;49.23
7748;BME280;3918;42.564;23.164;2023-04-23T04:52:27;-11650.84;;;-142.29;46.63
7748;BME280;3918;42.564;23.164;2023-04-23T04:54:55;-11650.84;;;-142.29;44.92
7748;BME280;3918;42.564;23.164;2023-04-23T04:57:22;-11650.84;;;-142.29;43.71
7748;BME280;3918;42.564;23.164;2023-04-23T04:59:49;-11650.84;;;-142.29;43.19
7748;BME280;3918;42.564;23.164;2023-04-23T05:02:16;-11650.84;;;-142.29;41.20
7748;BME280;3918;42.564;23.164;2023-04-23T05:04:42;-11650.84;;;-142.29;40.00
7748;BME280;3918;42.564;23.164;2023-04-23T05:07:10;-11650.84;;;-142.29;40.96
7748;BME280;3918;42.564;23.164;2023-04-23T05:09:37;-11650.84;;;-142.29;42.30
7748;BME280;3918;42.564;23.164;2023-04-23T05:12:05;-11650.84;;;-142.29;42.72
7748;BME280;3918;42.564;23.164;2023-04-23T05:14:32;-11650.84;;;-142.29;41.65
7748;BME280;3918;42.564;23.164;2023-04-23T05:16:59;-11650.84;;;-142.29;40.50
7748;BME280;3918;42.564;23.164;2023-04-23T05:19:26;-11650.84;;;-142.29;41.33
7748;BME280;3918;42.564;23.164;2023-04-23T05:21:52;-11650.84;;;-142.29;41.96
7748;BME280;3918;42.564;23.164;2023-04-23T05:24:19;-11650.84;;;-142.29;39.61
7748;BME280;3918;42.564;23.164;2023-04-23T05:26:46;-11650.84;;;-142.29;39.51
7748;BME280;3918;42.564;23.164;2023-04-23T05:29:14;-11650.84;;;-142.29;38.17
7748;BME280;3918;42.564;23.164;2023-04-23T05:31:44;-11650.84;;;-142.29;35.87
7748;BME280;3918;42.564;23.164;2023-04-23T05:34:11;-11650.84;;;-142.29;35.19
7748;BME280;3918;42.564;23.164;2023-04-23T05:36:37;-11650.84;;;-142.29;33.57
7748;BME280;3918;42.564;23.164;2023-04-23T05:39:04;-11650.84;;;-142.29;34.03
7748;BME280;3918;42.564;23.164;2023-04-23T05:41:31;-11650.84;;;-142.29;33.10
7748;BME280;3918;42.564;23.164;2023-04-23T05:43:58;-11650.84;;;-142.29;33.11
7748;BME280;3918;42.564;23.164;2023-04-23T05:46:26;-11650.84;;;-142.29;32.19
7748;BME280;3918;42.564;23.164;2023-04-23T05:48:53;-11650.84;;;-142.29;31.48
7748;BME280;3918;42.564;23.164;2023-04-23T05:51:20;-11650.84;;;-142.29;31.18
7748;BME280;3918;42.564;23.164;2023-04-23T05:53:47;-11650.84;;;-142.29;30.82
7748;BME280;3918;42.564;23.164;2023-04-23T05:56:14;-11650.84;;;-142.29;30.65
7748;BME280;3918;42.564;23.164;2023-04-23T05:58:40;-11650.84;;;-142.29;31.21
7748;BME280;3918;42.564;23.164;2023-04-23T06:01:08;-11650.84;;;-142.29;30.58
7748;BME280;3918;42.564;23.164;2023-04-23T06:03:36;-11650.84;;;-142.29;31.37
7748;BME280;3918;42.564;23.164;2023-04-23T06:06:06;-11650.84;;;-142.29;31.41
7748;BME280;3918;42.564;23.164;2023-04-23T06:08:32;-11650.84;;;-142.29;32.52
7748;BME280;3918;42.564;23.164;2023-04-23T06:10:59;-11650.84;;;-142.29;31.67
7748;BME280;3918;42.564;23.164;2023-04-23T06:13:26;-11650.84;;;-142.29;31.52
7748;BME280;3918;42.564;23.164;2023-04-23T06:15:55;-11650.84;;;-142.29;31.09
7748;BME280;3918;42.564;23.164;2023-04-23T06:18:22;-11650.84;;;-142.29;30.90
7748;BME280;3918;42.564;23.164;2023-04-23T06:20:50;-11650.84;;;-142.29;30.67
7748;BME280;3918;42.564;23.164;2023-04-23T06:23:17;-11650.84;;;-142.29;30.05
7748;BME280;3918;42.564;23.164;2023-04-23T06:25:43;-11650.84;;;-142.29;30.01
7748;BME280;3918;42.564;23.164;2023-04-23T06:28:11;-11650.84;;;-142.29;30.28
7748;BME280;3918;42.564;23.164;2023-04-23T06:30:38;-11650.84;;;-142.29;30.04
7748;BME280;3918;42.564;23.164;2023-04-23T06:33:05;-11650.84;;;-142.29;30.45
7748;BME280;3918;42.564;23.164;2023-04-23T06:35:32;-11650.84;;;-142.29;29.82
7748;BME280;3918;42.564;23.164;2023-04-23T06:38:00;-11650.84;;;-142.29;30.83
7748;BME280;3918;42.564;23.164;2023-04-23T06:40:27;-11650.84;;;-142.29;30.51
7748;BME280;3918;42.564;23.164;2023-04-23T06:42:53;-11650.84;;;-142.29;32.24
7748;BME280;3918;42.564;23.164;2023-04-23T06:45:20;-11650.84;;;-142.29;31.64
7748;BME280;3918;42.564;23.164;2023-04-23T06:47:48;-11650.84;;;-142.29;31.01
7748;BME280;3918;42.564;23.164;2023-04-23T06:50:15;-11650.84;;;-142.29;31.91
7748;BME280;3918;42.564;23.164;2023-04-23T06:52:42;-11650.84;;;-142.29;32.00
7748;BME280;3918;42.564;23.164;2023-04-23T06:55:11;-11650.84;;;-142.29;33.29
7748;BME280;3918;42.564;23.164;2023-04-23T06:57:38;-11650.84;;;-142.29;32.91
7748;BME280;3918;42.564;23.164;2023-04-23T07:00:06;-11650.84;;;-142.29;32.47
7748;BME280;3918;42.564;23.164;2023-04-23T07:02:33;-11650.84;;;-142.29;32.26
7748;BME280;3918;42.564;23.164;2023-04-23T07:05:00;-11650.84;;;-142.29;31.91
7748;BME280;3918;42.564;23.164;2023-04-23T07:07:27;-11650.84;;;-142.29;31.62
7748;BME280;3918;42.564;23.164;2023-04-23T07:09:54;-11650.84;;;-142.29;30.48
7748;BME280;3918;42.564;23.164;2023-04-23T07:12:22;-11650.84;;;-142.29;30.99
7748;BME280;3918;42.564;23.164;2023-04-23T07:14:49;-11650.84;;;-142.29;30.31
7748;BME280;3918;42.564;23.164;2023-04-23T07:17:17;-11650.84;;;-142.29;29.91
7748;BME280;3918;42.564;23.164;2023-04-23T07:19:44;-11650.84;;;-142.29;29.80
7748;BME280;3918;42.564;23.164;2023-04-23T07:22:12;-11650.84;;;-142.29;29.88
7748;BME280;3918;42.564;23.164;2023-04-23T07:24:39;-11650.84;;;-142.29;30.11
7748;BME280;3918;42.564;23.164;2023-04-23T07:27:06;-11650.84;;;-142.29;29.67
7748;BME280;3918;42.564;23.164;2023-04-23T07:29:34;-11650.84;;;-142.29;30.52
7748;BME280;3918;42.564;23.164;2023-04-23T07:32:01;-11650.84;;;-142.29;29.49
7748;BME280;3918;42.564;23.164;2023-04-23T07:34:28;-11650.84;;;-142.29;29.53
7748;BME280;3918;42.564;23.164;2023-04-23T07:36:55;-11650.84;;;-142.29;29.41
7748;BME280;3918;42.564;23.164;2023-04-23T07:39:22;-11650.84;;;-142.29;30.58
7748;BME280;3918;42.564;23.164;2023-04-23T07:41:49;-11650.84;;;-142.29;32.95
7748;BME280;3918;42.564;23.164;2023-04-23T07:44:15;-11650.84;;;-142.29;30.96
7748;BME280;3918;42.564;23.164;2023-04-23T07:46:44;-11650.84;;;-142.29;29.28
7748;BME280;3918;42.564;23.164;2023-04-23T07:49:10;-11650.84;;;-142.29;29.17
7748;BME280;3918;42.564;23.164;2023-04-23T07:51:37;-11650.84;;;-142.29;29.34
7748;BME280;3918;42.564;23.164;2023-04-23T07:54:04;-11650.84;;;-142.29;29.99
7748;BME280;3918;42.564;23.164;2023-04-23T07:56:31;-11650.84;;;-142.29;29.93
7748;BME280;3918;42.564;23.164;2023-04-23T07:58:57;-11650.84;;;-142.29;28.99
7748;BME280;3918;42.564;23.164;2023-04-23T08:01:24;-11650.84;;;-142.29;29.33
7748;BME280;3918;42.564;23.164;2023-04-23T08:03:53;-11650.84;;;-142.29;29.15
7748;BME280;3918;42.564;23.164;2023-04-23T08:06:20;-11650.84;;;-142.29;30.11
7748;BME280;3918;42.564;23.164;2023-04-23T08:08:48;-11650.84;;;-142.29;30.88
7748;BME280;3918;42.564;23.164;2023-04-23T08:11:14;-11650.84;;;-142.29;30.20
7748;BME280;3918;42.564;23.164;2023-04-23T08:13:41;-11650.84;;;-142.29;29.91
7748;BME280;3918;42.564;23.164;2023-04-23T08:16:08;-11650.84;;;-142.29;29.36
7748;BME280;3918;42.564;23.164;2023-04-23T08:18:35;-11650.84;;;-142.29;32.03
7748;BME280;3918;42.564;23.164;2023-04-23T08:21:03;-11650.84;;;-142.29;33.73
7748;BME280;3918;42.564;23.164;2023-04-23T08:23:30;-11650.84;;;-142.29;36.21
7748;BME280;3918;42.564;23.164;2023-04-23T08:25:57;-11650.84;;;-142.29;37.83
7748;BME280;3918;42.564;23.164;2023-04-23T08:28:24;-11650.84;;;-142.29;37.11
7748;BME280;3918;42.564;23.164;2023-04-23T08:30:52;-11650.84;;;-142.29;36.02
7748;BME280;3918;42.564;23.164;2023-04-23T08:33:19;-11650.84;;;-142.29;34.29
7748;BME280;3918;42.564;23.164;2023-04-23T08:35:46;-11650.84;;;-142.29;33.79
7748;BME280;3918;42.564;23.164;2023-04-23T08:38:14;-11650.84;;;-142.29;31.31
7748;BME280;3918;42.564;23.164;2023-04-23T08:40:41;-11650.84;;;-142.29;31.70
7748;BME280;3918;42.564;23.164;2023-04-23T08:43:12;-11650.84;;;-142.29;31.22
7748;BME280;3918;42.564;23.164;2023-04-23T08:45:42;-11650.84;;;-142.29;30.96
7748;BME280;3918;42.564;23.164;2023-04-23T08:48:12;-11650.84;;;-142.29;31.23
7748;BME280;3918;42.564;23.164;2023-04-23T08:50:41;-11650.84;;;-142.29;30.19
7748;BME280;3918;42.564;23.164;2023-04-23T08:53:09;-11650.84;;;-142.29;29.66
7748;BME280;3918;42.564;23.164;2023-04-23T08:55:37;-11650.84;;;-142.29;29.85
7748;BME280;3918;42.564;23.164;2023-04-23T08:58:05;-11650.84;;;-142.29;29.93
7748;BME280;3918;42.564;23.164;2023-04-23T09:00:32;-11650.84;;;-142.29;31.53
7748;BME280;3918;42.564;23.164;2023-04-23T09:02:59;-11650.84;;;-142.29;33.51
7748;BME280;3918;42.564;23.164;2023-04-23T09:05:26;-11650.84;;;-142.29;34.57
7748;BME280;3918;42.564;23.164;2023-04-23T09:07:53;-11650.84;;;-142.29;34.78
7748;BME280;3918;42.564;23.164;2023-04-23T09:10:20;-11650.84;;;-142.29;35.16
7748;BME280;3918;42.564;23.164;2023-04-23T09:12:48;-11650.84;;;-142.29;35.14
7748;BME280;3918;42.564;23.164;2023-04-23T09:15:15;-11650.84;;;-142.29;33.26
7748;BME280;3918;42.564;23.164;2023-04-23T09:17:43;-11650.84;;;-142.29;34.70
7748;BME280;3918;42.564;23.164;2023-04-23T09:20:12;-11650.84;;;-142.29;33.43
7748;BME280;3918;42.564;23.164;2023-04-23T09:22:41;-11650.84;;;-142.29;33.13
7748;BME280;3918;42.564;23.164;2023-04-23T09:25:09;-11650.84;;;-142.29;34.12
7748;BME280;3918;42.564;23.164;2023-04-23T09:27:36;-11650.84;;;-142.29;35.13
7748;BME280;3918;42.564;23.164;2023-04-23T09:30:06;-11650.84;;;-142.29;37.49
7748;BME280;3918;42.564;23.164;2023-04-23T09:32:36;-11650.84;;;-142.29;37.78
7748;BME280;3918;42.564;23.164;2023-04-23T09:35:03;-11650.84;;;-142.29;35.89
7748;BME280;3918;42.564;23.164;2023-04-23T09:37:30;-11650.84;;;-142.29;36.43
7748;BME280;3918;42.564;23.164;2023-04-23T09:39:58;-11650.84;;;-142.29;37.56
7748;BME280;3918;42.564;23.164;2023-04-23T09:42:26;-11650.84;;;-142.29;37.24
7748;BME280;3918;42.564;23.164;2023-04-23T09:44:55;-11650.84;;;-142.29;35.45
7748;BME280;3918;42.564;23.164;2023-04-23T09:47:24;-11650.84;;;-142.29;34.92
7748;BME280;3918;42.564;23.164;2023-04-23T09:49:52;-11650.84;;;-142.29;36.74
7748;BME280;3918;42.564;23.164;2023-04-23T09:52:19;-11650.84;;;-142.29;35.43
7748;BME280;3918;42.564;23.164;2023-04-23T09:54:47;-11650.84;;;-142.29;35.56
7748;BME280;3918;42.564;23.164;2023-04-23T09:57:15;-11650.84;;;-142.29;38.33
7748;BME280;3918;42.564;23.164;2023-04-23T09:59:42;-11650.84;;;-142.29;36.05
7748;BME280;3918;42.564;23.164;2023-04-23T10:02:09;-11650.84;;;-142.29;35.70
7748;BME280;3918;42.564;23.164;2023-04-23T10:04:38;-11650.84;;;-142.29;35.87
7748;BME280;3918;42.564;23.164;2023-04-23T10:07:06;-11650.84;;;-142.29;36.19
7748;BME280;3918;42.564;23.164;2023-04-23T10:09:39;-11650.84;;;-142.29;35.90
7748;BME280;3918;42.564;23.164;2023-04-23T10:12:07;-11650.84;;;-142.29;35.92
7748;BME280;3918;42.564;23.164;2023-04-23T10:14:35;-11650.84;;;-142.29;35.61
7748;BME280;3918;42.564;23.164;2023-04-23T10:17:04;-11650.84;;;-142.29;36.37
7748;BME280;3918;42.564;23.164;2023-04-23T10:19:31;-11650.84;;;-142.29;37.22
7748;BME280;3918;42.564;23.164;2023-04-23T10:22:03;-11650.84;;;-142.29;38.39
7748;BME280;3918;42.564;23.164;2023-04-23T10:24:33;-11650.84;;;-142.29;37.32
7748;BME280;3918;42.564;23.164;2023-04-23T10:27:02;-11650.84;;;-142.29;36.83
7748;BME280;3918;42.564;23.164;2023-04-23T10:29:30;-11650.84;;;-142.29;36.31
7748;BME280;3918;42.564;23.164;2023-04-23T10:31:58;-11650.84;;;-142.29;34.62
7748;BME280;3918;42.564;23.164;2023-04-23T10:34:26;-11650.84;;;-142.29;35.70
7748;BME280;3918;42.564;23.164;2023-04-23T10:36:54;-11650.84;;;-142.29;36.18
7748;BME280;3918;42.564;23.164;2023-04-23T10:39:24;-11650.84;;;-142.29;36.90
7748;BME280;3918;42.564;23.164;2023-04-23T10:41:53;-11650.84;;;-142.29;37.06
7748;BME280;3918;42.564;23.164;2023-04-23T10:44:20;-11650.84;;;-142.29;38.33
7748;BME280;3918;42.564;23.164;2023-04-23T10:46:52;-11650.84;;;-142.29;36.22
7748;BME280;3918;42.564;23.164;2023-04-23T10:49:21;-11650.84;;;-142.29;38.21
7748;BME280;3918;42.564;23.164;2023-04-23T10:51:48;-11650.84;;;-142.29;39.31
7748;BME280;3918;42.564;23.164;2023-04-23T10:54:15;-11650.84;;;-142.29;39.63
7748;BME280;3918;42.564;23.164;2023-04-23T10:56:44;-11650.84;;;-142.29;40.09
7748;BME280;3918;42.564;23.164;2023-04-23T10:59:17;-11650.84;;;-142.29;38.09
7748;BME280;3918;42.564;23.164;2023-04-23T11:01:46;-11650.84;;;-142.29;36.80
7748;BME280;3918;42.564;23.164;2023-04-23T11:04:21;-11650.84;;;-142.29;38.40
7748;BME280;3918;42.564;23.164;2023-04-23T11:06:56;-11650.84;;;-142.29;34.87
7748;BME280;3918;42.564;23.164;2023-04-23T11:09:44;-11650.84;;;-142.29;36.81
7748;BME280;3918;42.564;23.164;2023-04-23T11:12:30;-11650.84;;;-142.29;36.38
7748;BME280;3918;42.564;23.164;2023-04-23T11:14:57;-11650.84;;;-142.29;35.34
7748;BME280;3918;42.564;23.164;2023-04-23T11:20:24;-11650.84;;;-142.29;33.93
7748;BME280;3918;42.564;23.164;2023-04-23T11:22:51;-11650.84;;;-142.29;32.62
7748;BME280;3918;42.564;23.164;2023-04-23T11:25:20;-11650.84;;;-142.29;33.71
7748;BME280;3918;42.564;23.164;2023-04-23T11:27:49;-11650.84;;;-142.29;33.46
7748;BME280;3918;42.564;23.164;2023-04-23T11:30:20;-11650.84;;;-142.29;30.90
7748;BME280;3918;42.564;23.164;2023-04-23T11:32:48;-11650.84;;;-142.29;30.78
7748;BME280;3918;42.564;23.164;2023-04-23T11:35:17;-11650.84;;;-142.29;31.16
7748;BME280;3918;42.564;23.164;2023-04-23T11:37:45;-11650.84;;;-142.29;31.50
7748;BME280;3918;42.564;23.164;2023-04-23T11:40:15;-11650.84;;;-142.29;31.15
7748;BME280;3918;42.564;23.164;2023-04-23T11:42:44;-11650.84;;;-142.29;31.43
7748;BME280;3918;42.564;23.164;2023-04-23T11:45:20;-11650.84;;;-142.29;33.43
7748;BME280;3918;42.564;23.164;2023-04-23T11:47:48;-11650.84;;;-142.29;33.24
7748;BME280;3918;42.564;23.164;2023-04-23T11:50:18;-11650.84;;;-142.29;34.97
7748;BME280;3918;42.564;23.164;2023-04-23T11:52:44;-11650.84;;;-142.29;35.97
7748;BME280;3918;42.564;23.164;2023-04-23T11:55:11;-11650.84;;;-142.29;34.93
7748;BME280;3918;42.564;23.164;2023-04-23T11:57:40;-11650.84;;;-142.29;34.39
7748;BME280;3918;42.564;23.164;2023-04-23T12:00:15;-11650.84;;;-142.29;34.01
7748;BME280;3918;42.564;23.164;2023-04-23T12:02:51;-11650.84;;;-142.29;33.78
7748;BME280;3918;42.564;23.164;2023-04-23T12:05:19;-11650.84;;;-142.29;34.32
7748;BME280;3918;42.564;23.164;2023-04-23T12:07:48;-11650.84;;;-142.29;34.50
7748;BME280;3918;42.564;23.164;2023-04-23T12:10:17;-11650.84;;;-142.29;34.46
7748;BME280;3918;42.564;23.164;2023-04-23T12:12:48;-11650.84;;;-142.29;33.81
7748;BME280;3918;42.564;23.164;2023-04-23T12:15:15;-11650.84;;;-142.29;33.48
7748;BME280;3918;42.564;23.164;2023-04-23T12:17:47;-11650.84;;;-142.29;34.13
7748;BME280;3918;42.564;23.164;2023-04-23T12:20:18;-11650.84;;;-142.29;33.86
7748;BME280;3918;42.564;23.164;2023-04-23T12:22:45;-11650.84;;;-142.29;34.98
7748;BME280;3918;42.564;23.164;2023-04-23T12:25:13;-11650.84;;;-142.29;33.41
7748;BME280;3918;42.564;23.164;2023-04-23T12:27:40;-11650.84;;;-142.29;34.24
7748;BME280;3918;42.564;23.164;2023-04-23T12:30:10;-11650.84;;;-142.29;34.02
7748;BME280;3918;42.564;23.164;2023-04-23T12:32:37;-11650.84;;;-142.29;33.60
7748;BME280;3918;42.564;23.164;2023-04-23T12:35:04;-11650.84;;;-142.29;34.80
7748;BME280;3918;42.564;23.164;2023-04-23T12:37:36;-11650.84;;;-142.29;35.08
7748;BME280;3918;42.564;23.164;2023-04-23T12:40:03;-11650.84;;;-142.29;35.24
7748;BME280;3918;42.564;23.164;2023-04-23T12:42:32;-11650.84;;;-142.29;35.62
7748;BME280;3918;42.564;23.164;2023-04-23T12:45:09;-11650.84;;;-142.29;35.71
7748;BME280;3918;42.564;23.164;2023-04-23T12:47:36;-11650.84;;;-142.29;36.20
7748;BME280;3918;42.564;23.164;2023-04-23T12:50:03;-11650.84;;;-142.29;36.54
7748;BME280;3918;42.564;23.164;2023-04-23T12:52:30;-11650.84;;;-142.29;35.85
7748;BME280;3918;42.564;23.164;2023-04-23T12:54:59;-11650.84;;;-142.29;36.05
7748;BME280;3918;42.564;23.164;2023-04-23T12:57:26;-11650.84;;;-142.29;35.51
7748;BME280;3918;42.564;23.164;2023-04-23T12:59:53;-11650.84;;;-142.29;35.92
7748;BME280;3918;42.564;23.164;2023-04-23T13:02:21;-11650.84;;;-142.29;36.63
7748;BME280;3918;42.564;23.164;2023-04-23T13:04:48;-11650.84;;;-142.29;35.22
7748;BME280;3918;42.564;23.164;2023-04-23T13:07:15;-11650.84;;;-142.29;35.09
7748;BME280;3918;42.564;23.164;2023-04-23T13:09:42;-11650.84;;;-142.29;36.01
7748;BME280;3918;42.564;23.164;2023-04-23T13:12:10;-11650.84;;;-142.29;35.02
7748;BME280;3918;42.564;23.164;2023-04-23T13:14:37;-11650.84;;;-142.29;35.27
7748;BME280;3918;42.564;23.164;2023-04-23T13:17:04;-11650.84;;;-142.29;35.04
7748;BME280;3918;42.564;23.164;2023-04-23T13:19:31;-11650.84;;;-142.29;36.25
7748;BME280;3918;42.564;23.164;2023-04-23T13:22:01;-11650.84;;;-142.29;34.19
7748;BME280;3918;42.564;23.164;2023-04-23T13:24:28;-11650.84;;;-142.29;33.84
7748;BME280;3918;42.564;23.164;2023-04-23T13:26:54;-11650.84;;;-142.29;34.11
7748;BME280;3918;42.564;23.164;2023-04-23T13:29:23;-11650.84;;;-142.29;32.66
7748;BME280;3918;42.564;23.164;2023-04-23T13:31:51;-11650.84;;;-142.29;34.38
7748;BME280;3918;42.564;23.164;2023-04-23T13:34:18;-11650.84;;;-142.29;34.40
7748;BME280;3918;42.564;23.164;2023-04-23T13:36:45;-11650.84;;;-142.29;35.57
7748;BME280;3918;42.564;23.164;2023-04-23T13:39:12;-11650.84;;;-142.29;36.93
7748;BME280;3918;42.564;23.164;2023-04-23T13:41:39;-11650.84;;;-142.29;36.48
7748;BME280;3918;42.564;23.164;2023-04-23T13:44:06;-11650.84;;;-142.29;35.57
7748;BME280;3918;42.564;23.164;2023-04-23T13:46:35;-11650.84;;;-142.29;35.72
7748;BME280;3918;42.564;23.164;2023-04-23T13:49:04;-11650.84;;;-142.29;36.11
7748;BME280;3918;42.564;23.164;2023-04-23T13:51:31;-11650.84;;;-142.29;35.48
7748;BME280;3918;42.564;23.164;2023-04-23T13:53:58;-11650.84;;;-142.29;35.14
7748;BME280;3918;42.564;23.164;2023-04-23T13:56:25;-11650.84;;;-142.29;34.54
7748;BME280;3918;42.564;23.164;2023-04-23T13:58:53;-11650.84;;;-142.29;34.46
7748;BME280;3918;42.564;23.164;2023-04-23T14:01:24;-11650.84;;;-142.29;34.27
7748;BME280;3918;42.564;23.164;2023-04-23T14:03:53;-11650.84;;;-142.29;34.11
7748;BME280;3918;42.564;23.164;2023-04-23T14:06:20;-11650.84;;;-142.29;33.10
7748;BME280;3918;42.564;23.164;2023-04-23T14:08:47;-11650.84;;;-142.29;33.48
7748;BME280;3918;42.564;23.164;2023-04-23T14:11:14;-11650.84;;;-142.29;33.43
7748;BME280;3918;42.564;23.164;2023-04-23T14:13:41;-11650.84;;;-142.29;34.10
7748;BME280;3918;42.564;23.164;2023-04-23T14:16:08;-11650.84;;;-142.29;34.23
7748;BME280;3918;42.564;23.164;2023-04-23T14:18:35;-11650.84;;;-142.29;34.73
7748;BME280;3918;42.564;23.164;2023-04-23T14:21:03;-11650.84;;;-142.29;34.66
7748;BME280;3918;42.564;23.164;2023-04-23T14:23:44;-11650.84;;;-142.29;35.27
7748;BME280;3918;42.564;23.164;2023-04-23T14:26:22;-11650.84;;;-142.29;36.17
7748;BME280;3918;42.564;23.164;2023-04-23T14:28:56;-11650.84;;;-142.29;36.40
7748;BME280;3918;42.564;23.164;2023-04-23T14:31:23;-11650.84;;;-142.29;35.99
7748;BME280;3918;42.564;23.164;2023-04-23T14:33:50;-11650.84;;;-142.29;36.15
7748;BME280;3918;42.564;23.164;2023-04-23T14:36:18;-11650.84;;;-142.29;37.26
7748;BME280;3918;42.564;23.164;2023-04-23T14:38:46;-11650.84;;;-142.29;36.98
7748;BME280;3918;42.564;23.164;2023-04-23T14:41:13;-11650.84;;;-142.29;35.87
7748;BME280;3918;42.564;23.164;2023-04-23T14:43:39;-11650.84;;;-142.29;37.36
7748;BME280;3918;42.564;23.164;2023-04-23T14:46:06;-11650.84;;;-142.29;37.57
7748;BME280;3918;42.564;23.164;2023-04-23T14:48:33;-11650.84;;;-142.29;37.40
7748;BME280;3918;42.564;23.164;2023-04-23T14:51:00;-11650.84;;;-142.29;37.15
7748;BME280;3918;42.564;23.164;2023-04-23T14:53:28;-11650.84;;;-142.29;37.13
7748;BME280;3918;42.564;23.164;2023-04-23T14:55:55;-11650.84;;;-142.29;37.41
7748;BME280;3918;42.564;23.164;2023-04-23T14:58:21;-11650.84;;;-142.29;37.42
7748;BME280;3918;42.564;23.164;2023-04-23T15:00:48;-11650.84;;;-142.29;36.80
7748;BME280;3918;42.564;23.164;2023-04-23T15:03:15;-11650.84;;;-142.29;36.81
7748;BME280;3918;42.564;23.164;2023-04-23T15:05:42;-11650.84;;;-142.29;36.43
7748;BME280;3918;42.564;23.164;2023-04-23T15:08:09;-11650.84;;;-142.29;36.62
7748;BME280;3918;42.564;23.164;2023-04-23T15:10:38;-11650.84;;;-142.29;36.52
7748;BME280;3918;42.564;23.164;2023-04-23T15:13:30;-11650.84;;;-142.29;36.38
7748;BME280;3918;42.564;23.164;2023-04-23T15:16:02;-11650.84;;;-142.29;36.53
7748;BME280;3918;42.564;23.164;2023-04-23T15:18:33;-11650.84;;;-142.29;35.89
7748;BME280;3918;42.564;23.164;2023-04-23T15:21:00;-11650.84;;;-142.29;37.14
7748;BME280;3918;42.564;23.164;2023-04-23T15:23:29;-11650.84;;;-142.29;36.68
7748;BME280;3918;42.564;23.164;2023-04-23T15:25:57;-11650.84;;;-142.29;36.43
7748;BME280;3918;42.564;23.164;2023-04-23T15:28:24;-11650.84;;;-142.29;36.87
7748;BME280;3918;42.564;23.164;2023-04-23T15:30:51;-11650.84;;;-142.29;36.03
7748;BME280;3918;42.564;23.164;2023-04-23T15:33:18;-11650.84;;;-142.29;36.99
7748;BME280;3918;42.564;23.164;2023-04-23T15:35:46;-11650.84;;;-142.29;36.76
7748;BME280;3918;42.564;23.164;2023-04-23T15:38:16;-11650.84;;;-142.29;37.11
7748;BME280;3918;42.564;23.164;2023-04-23T15:40:44;-11650.84;;;-142.29;37.56
7748;BME280;3918;42.564;23.164;2023-04-23T15:43:13;-11650.84;;;-142.29;37.29
7748;BME280;3918;42.564;23.164;2023-04-23T15:45:40;-11650.84;;;-142.29;37.88
7748;BME280;3918;42.564;23.164;2023-04-23T15:48:08;-11650.84;;;-142.29;37.82
7748;BME280;3918;42.564;23.164;2023-04-23T15:50:35;-11650.84;;;-142.29;37.60
7748;BME280;3918;42.564;23.164;2023-04-23T15:53:01;-11650.84;;;-142.29;37.63
7748;BME280;3918;42.564;23.164;2023-04-23T15:55:28;-11650.84;;;-142.29;37.01
7748;BME280;3918;42.564;23.164;2023-04-23T15:57:55;-11650.84;;;-142.29;37.61
7748;BME280;3918;42.564;23.164;2023-04-23T16:00:24;-11650.84;;;-142.29;37.57
7748;BME280;3918;42.564;23.164;2023-04-23T16:02:51;-11650.84;;;-142.29;37.63
7748;BME280;3918;42.564;23.164;2023-04-23T16:05:18;-11650.84;;;-142.29;38.07
7748;BME280;3918;42.564;23.164;2023-04-23T16:07:45;-11650.84;;;-142.29;37.28
7748;BME280;3918;42.564;23.164;2023-04-23T16:10:12;-11650.84;;;-142.29;38.17
7748;BME280;3918;42.564;23.164;2023-04-23T16:12:39;-11650.84;;;-142.29;37.71
7748;BME280;3918;42.564;23.164;2023-04-23T16:15:10;-11650.84;;;-142.29;38.84
7748;BME280;3918;42.564;23.164;2023-04-23T16:17:38;-11650.84;;;-142.29;38.65
7748;BME280;3918;42.564;23.164;2023-04-23T16:20:06;-11650.84;;;-142.29;38.91
7748;BME280;3918;42.564;23.164;2023-04-23T16:22:33;-11650.84;;;-142.29;39.06
7748;BME280;3918;42.564;23.164;2023-04-23T16:24:59;-11650.84;;;-142.29;39.83
7748;BME280;3918;42.564;23.164;2023-04-23T16:27:26;-11650.84;;;-142.29;40.12
7748;BME280;3918;42.564;23.164;2023-04-23T16:29:53;-11650.84;;;-142.29;40.31
7748;BME280;3918;42.564;23.164;2023-04-23T16:32:20;-11650.84;;;-142.29;40.46
7748;BME280;3918;42.564;23.164;2023-04-23T16:34:48;-11650.84;;;-142.29;40.92
7748;BME280;3918;42.564;23.164;2023-04-23T16:37:15;-11650.84;;;-142.29;42.09
7748;BME280;3918;42.564;23.164;2023-04-23T16:39:42;-11650.84;;;-142.29;42.34
7748;BME280;3918;42.564;23.164;2023-04-23T16:42:09;-11650.84;;;-142.29;43.21
7748;BME280;3918;42.564;23.164;2023-04-23T16:44:36;-11650.84;;;-142.29;44.23
7748;BME280;3918;42.564;23.164;2023-04-23T16:47:03;-11650.84;;;-142.29;44.93
7748;BME280;3918;42.564;23.164;2023-04-23T16:49:30;-11650.84;;;-142.29;45.35